sensor_id;sensor_type;location;lat;lon;timestamp;temperature;humidity
11934;DHT22;6026;48.784;9.198;2023-05-17T00:00:32;8.30;99.90
11934;DHT22;6026;48.784;9.198;2023-05-17T00:02:57;8.30;99.90
11934;DHT22;6026;48.784;9.198;2023-05-17T00:05:23;8.20;99.90
11934;DHT22;6026;48.784;9.198;2023-05-17T00:07:48;8.20;99.90
11934;DHT22;6026;48.784;9.198;2023-05-17T00:10:15;8.10;99.90
11934;DHT22;6026;48.784;9.198;2023-05-17T00:12:41;8.10;99.90
11934;DHT22;6026;48.784;9.198;2023-05-17T00:15:07;8.10;99.90
11934;DHT22;6026;48.784;9.198;2023-05-17T00:17:32;8.10;99.90
11934;DHT22;6026;48.784;9.198;2023-05-17T00:19:58;8.00;99.90
11934;DHT22;6026;48.784;9.198;2023-05-17T00:22:23;8.00;99.90
11934;DHT22;6026;48.784;9.198;2023-05-17T00:24:49;8.00;99.90
11934;DHT22;6026;48.784;9.198;2023-05-17T00:27:15;7.90;99.90
11934;DHT22;6026;48.784;9.198;2023-05-17T00:29:40;8.00;99.90
11934;DHT22;6026;48.784;9.198;2023-05-17T00:32:06;7.90;99.90
11934;DHT22;6026;48.784;9.198;2023-05-17T00:34:31;7.90;99.90
11934;DHT22;6026;48.784;9.198;2023-05-17T00:36:57;7.90;99.90
11934;DHT22;6026;48.784;9.198;2023-05-17T00:39:22;7.80;99.90
11934;DHT22;6026;48.784;9.198;2023-05-17T00:41:48;7.80;99.90
11934;DHT22;6026;48.784;9.198;2023-05-17T00:44:13;7.80;99.90
11934;DHT22;6026;48.784;9.198;2023-05-17T00:46:39;7.80;99.90
11934;DHT22;6026;48.784;9.198;2023-05-17T00:49:05;7.80;99.90
11934;DHT22;6026;48.784;9.198;2023-05-17T00:51:31;7.70;99.90
11934;DHT22;6026;48.784;9.198;2023-05-17T00:53:57;7.70;99.90
11934;DHT22;6026;48.784;9.198;2023-05-17T00:56:23;7.70;99.90
11934;DHT22;6026;48.784;9.198;2023-05-17T00:58:49;7.70;99.90
11934;DHT22;6026;48.784;9.198;2023-05-17T01:01:15;7.70;99.90
11934;DHT22;6026;48.784;9.198;2023-05-17T01:03:41;7.70;99.90
11934;DHT22;6026;48.784;9.198;2023-05-17T01:06:07;7.70;99.90
11934;DHT22;6026;48.784;9.198;2023-05-17T01:08:33;7.70;99.90
11934;DHT22;6026;48.784;9.198;2023-05-17T01:13:32;7.70;99.90
11934;DHT22;6026;48.784;9.198;2023-05-17T01:18:56;7.60;99.90
11934;DHT22;6026;48.784;9.198;2023-05-17T01:21:34;7.60;99.90
11934;DHT22;6026;48.784;9.198;2023-05-17T01:24:24;7.60;99.90
11934;DHT22;6026;48.784;9.198;2023-05-17T01:26:52;7.60;99.90
11934;DHT22;6026;48.784;9.198;2023-05-17T01:29:21;7.60;99.90
11934;DHT22;6026;48.784;9.198;2023-05-17T01:31:48;7.60;99.90
11934;DHT22;6026;48.784;9.198;2023-05-17T01:34:26;7.60;99.90
11934;DHT22;6026;48.784;9.198;2023-05-17T01:36:52;7.60;99.90
11934;DHT22;6026;48.784;9.198;2023-05-17T01:39:17;7.60;99.90
11934;DHT22;6026;48.784;9.198;2023-05-17T01:41:48;7.60;99.90
11934;DHT22;6026;48.784;9.198;2023-05-17T01:44:26;7.50;99.90
11934;DHT22;6026;48.784;9.198;2023-05-17T01:46:59;7.50;99.90
11934;DHT22;6026;48.784;9.198;2023-05-17T01:49:31;7.50;99.90
11934;DHT22;6026;48.784;9.198;2023-05-17T01:52:08;7.50;99.90
11934;DHT22;6026;48.784;9.198;2023-05-17T01:54:47;7.50;99.90
11934;DHT22;6026;48.784;9.198;2023-05-17T01:57:19;7.50;99.90
11934;DHT22;6026;48.784;9.198;2023-05-17T01:59:47;7.50;99.90
11934;DHT22;6026;48.784;9.198;2023-05-17T02:02:14;7.50;99.90
11934;DHT22;6026;48.784;9.198;2023-05-17T02:04:40;7.50;99.90
11934;DHT22;6026;48.784;9.198;2023-05-17T02:07:05;7.40;99.90
11934;DHT22;6026;48.784;9.198;2023-05-17T02:09:31;7.50;99.90
11934;DHT22;6026;48.784;9.198;2023-05-17T02:11:56;7.40;99.90
11934;DHT22;6026;48.784;9.198;2023-05-17T02:14:22;7.50;99.90
11934;DHT22;6026;48.784;9.198;2023-05-17T02:16:47;7.40;99.90
11934;DHT22;6026;48.784;9.198;2023-05-17T02:19:13;7.40;99.90
11934;DHT22;6026;48.784;9.198;2023-05-17T02:21:39;7.40;99.90
11934;DHT22;6026;48.784;9.198;2023-05-17T02:24:05;7.40;99.90
11934;DHT22;6026;48.784;9.198;2023-05-17T02:26:31;7.30;99.90
11934;DHT22;6026;48.784;9.198;2023-05-17T02:28:57;7.30;99.90
11934;DHT22;6026;48.784;9.198;2023-05-17T02:31:23;7.30;99.90
11934;DHT22;6026;48.784;9.198;2023-05-17T02:33:54;7.20;99.90
11934;DHT22;6026;48.784;9.198;2023-05-17T02:36:19;7.20;99.90
11934;DHT22;6026;48.784;9.198;2023-05-17T02:38:46;7.20;99.90
11934;DHT22;6026;48.784;9.198;2023-05-17T02:41:11;7.20;99.90
11934;DHT22;6026;48.784;9.198;2023-05-17T02:43:37;7.10;99.90
11934;DHT22;6026;48.784;9.198;2023-05-17T02:46:03;7.10;99.90
11934;DHT22;6026;48.784;9.198;2023-05-17T02:48:28;7.10;99.90
11934;DHT22;6026;48.784;9.198;2023-05-17T02:50:54;7.00;99.90
11934;DHT22;6026;48.784;9.198;2023-05-17T02:53:19;7.00;99.90
11934;DHT22;6026;48.784;9.198;2023-05-17T02:55:45;7.00;99.90
11934;DHT22;6026;48.784;9.198;2023-05-17T02:58:10;6.90;99.90
11934;DHT22;6026;48.784;9.198;2023-05-17T03:00:36;6.90;99.90
11934;DHT22;6026;48.784;9.198;2023-05-17T03:03:01;6.90;99.90
11934;DHT22;6026;48.784;9.198;2023-05-17T03:05:27;6.80;99.90
11934;DHT22;6026;48.784;9.198;2023-05-17T03:07:53;6.80;99.90
11934;DHT22;6026;48.784;9.198;2023-05-17T03:10:18;6.80;99.90
11934;DHT22;6026;48.784;9.198;2023-05-17T03:12:44;6.70;99.90
11934;DHT22;6026;48.784;9.198;2023-05-17T03:15:10;6.70;99.90
11934;DHT22;6026;48.784;9.198;2023-05-17T03:17:35;6.80;99.90
11934;DHT22;6026;48.784;9.198;2023-05-17T03:20:01;6.70;99.90
11934;DHT22;6026;48.784;9.198;2023-05-17T03:22:27;6.60;99.90
11934;DHT22;6026;48.784;9.198;2023-05-17T03:24:52;6.70;99.90
11934;DHT22;6026;48.784;9.198;2023-05-17T03:27:18;6.70;99.90
11934;DHT22;6026;48.784;9.198;2023-05-17T03:29:43;6.60;99.90
11934;DHT22;6026;48.784;9.198;2023-05-17T03:32:09;6.60;99.90
11934;DHT22;6026;48.784;9.198;2023-05-17T03:34:35;6.60;99.90
11934;DHT22;6026;48.784;9.198;2023-05-17T03:37:00;6.60;99.90
11934;DHT22;6026;48.784;9.198;2023-05-17T03:39:26;6.60;99.90
11934;DHT22;6026;48.784;9.198;2023-05-17T03:41:51;6.50;99.90
11934;DHT22;6026;48.784;9.198;2023-05-17T03:44:17;6.50;99.90
11934;DHT22;6026;48.784;9.198;2023-05-17T03:46:42;6.50;99.90
11934;DHT22;6026;48.784;9.198;2023-05-17T03:49:08;6.40;99.90
11934;DHT22;6026;48.784;9.198;2023-05-17T03:51:33;6.40;99.90
11934;DHT22;6026;48.784;9.198;2023-05-17T03:54:00;6.40;99.90
11934;DHT22;6026;48.784;9.198;2023-05-17T03:56:25;6.40;99.90
11934;DHT22;6026;48.784;9.198;2023-05-17T03:58:51;6.40;99.90
11934;DHT22;6026;48.784;9.198;2023-05-17T04:01:17;6.40;99.90
11934;DHT22;6026;48.784;9.198;2023-05-17T04:03:45;6.40;99.90
11934;DHT22;6026;48.784;9.198;2023-05-17T04:06:13;6.40;99.90
11934;DHT22;6026;48.784;9.198;2023-05-17T04:08:41;6.40;99.90
11934;DHT22;6026;48.784;9.198;2023-05-17T04:11:07;6.40;99.90
11934;DHT22;6026;48.784;9.198;2023-05-17T04:13:41;6.40;99.90
11934;DHT22;6026;48.784;9.198;2023-05-17T04:16:07;6.40;99.90
11934;DHT22;6026;48.784;9.198;2023-05-17T04:18:34;6.40;99.90
11934;DHT22;6026;48.784;9.198;2023-05-17T04:21:01;6.50;99.90
11934;DHT22;6026;48.784;9.198;2023-05-17T04:23:26;6.50;99.90
11934;DHT22;6026;48.784;9.198;2023-05-17T04:25:52;6.50;99.90
11934;DHT22;6026;48.784;9.198;2023-05-17T04:28:18;6.60;99.90
11934;DHT22;6026;48.784;9.198;2023-05-17T04:30:45;6.60;99.90
11934;DHT22;6026;48.784;9.198;2023-05-17T04:33:12;6.60;99.90
11934;DHT22;6026;48.784;9.198;2023-05-17T04:35:39;6.70;99.90
11934;DHT22;6026;48.784;9.198;2023-05-17T04:38:06;6.70;99.90
11934;DHT22;6026;48.784;9.198;2023-05-17T04:40:32;6.70;99.90
11934;DHT22;6026;48.784;9.198;2023-05-17T04:42:58;6.80;99.90
11934;DHT22;6026;48.784;9.198;2023-05-17T04:45:24;6.80;99.90
11934;DHT22;6026;48.784;9.198;2023-05-17T04:47:50;6.90;99.90
11934;DHT22;6026;48.784;9.198;2023-05-17T04:50:17;6.90;99.90
11934;DHT22;6026;48.784;9.198;2023-05-17T04:52:44;7.00;99.90
11934;DHT22;6026;48.784;9.198;2023-05-17T04:55:10;7.10;99.90
11934;DHT22;6026;48.784;9.198;2023-05-17T04:57:35;7.10;99.90
11934;DHT22;6026;48.784;9.198;2023-05-17T05:00:05;7.10;99.90
11934;DHT22;6026;48.784;9.198;2023-05-17T05:02:38;7.20;99.90
11934;DHT22;6026;48.784;9.198;2023-05-17T05:05:04;7.20;99.90
11934;DHT22;6026;48.784;9.198;2023-05-17T05:07:31;7.20;99.90
11934;DHT22;6026;48.784;9.198;2023-05-17T05:09:56;7.30;99.90
11934;DHT22;6026;48.784;9.198;2023-05-17T05:12:23;7.30;99.90
11934;DHT22;6026;48.784;9.198;2023-05-17T05:14:49;7.40;99.90
11934;DHT22;6026;48.784;9.198;2023-05-17T05:17:14;7.40;99.90
11934;DHT22;6026;48.784;9.198;2023-05-17T05:19:40;7.50;99.90
11934;DHT22;6026;48.784;9.198;2023-05-17T05:22:05;7.50;99.90
11934;DHT22;6026;48.784;9.198;2023-05-17T05:24:31;7.50;99.90
11934;DHT22;6026;48.784;9.198;2023-05-17T05:26:56;7.60;99.90
11934;DHT22;6026;48.784;9.198;2023-05-17T05:29:22;7.70;99.90
11934;DHT22;6026;48.784;9.198;2023-05-17T05:31:47;7.70;99.90
11934;DHT22;6026;48.784;9.198;2023-05-17T05:34:13;7.80;99.90
11934;DHT22;6026;48.784;9.198;2023-05-17T05:36:39;7.90;99.90
11934;DHT22;6026;48.784;9.198;2023-05-17T05:39:04;7.90;99.90
11934;DHT22;6026;48.784;9.198;2023-05-17T05:41:30;8.10;99.90
11934;DHT22;6026;48.784;9.198;2023-05-17T05:43:57;8.10;99.90
11934;DHT22;6026;48.784;9.198;2023-05-17T05:46:22;8.20;99.90
11934;DHT22;6026;48.784;9.198;2023-05-17T05:48:48;8.30;99.90
11934;DHT22;6026;48.784;9.198;2023-05-17T05:51:13;8.30;99.90
11934;DHT22;6026;48.784;9.198;2023-05-17T05:53:39;8.40;99.90
11934;DHT22;6026;48.784;9.198;2023-05-17T05:56:05;8.50;99.90
11934;DHT22;6026;48.784;9.198;2023-05-17T05:58:31;8.60;99.90
11934;DHT22;6026;48.784;9.198;2023-05-17T06:00:57;8.90;99.90
11934;DHT22;6026;48.784;9.198;2023-05-17T06:03:23;9.20;99.90
11934;DHT22;6026;48.784;9.198;2023-05-17T06:05:48;9.40;99.90
11934;DHT22;6026;48.784;9.198;2023-05-17T06:08:14;9.70;99.90
11934;DHT22;6026;48.784;9.198;2023-05-17T06:10:40;10.00;99.90
11934;DHT22;6026;48.784;9.198;2023-05-17T06:13:05;10.00;99.90
11934;DHT22;6026;48.784;9.198;2023-05-17T06:15:31;9.90;99.90
11934;DHT22;6026;48.784;9.198;2023-05-17T06:17:57;9.90;99.90
11934;DHT22;6026;48.784;9.198;2023-05-17T06:20:22;10.00;99.90
11934;DHT22;6026;48.784;9.198;2023-05-17T06:22:48;10.00;99.90
11934;DHT22;6026;48.784;9.198;2023-05-17T06:25:13;10.10;99.90
11934;DHT22;6026;48.784;9.198;2023-05-17T06:27:39;10.30;99.90
11934;DHT22;6026;48.784;9.198;2023-05-17T06:30:05;10.80;99.90
11934;DHT22;6026;48.784;9.198;2023-05-17T06:32:31;11.10;99.90
11934;DHT22;6026;48.784;9.198;2023-05-17T06:34:57;11.20;99.90
11934;DHT22;6026;48.784;9.198;2023-05-17T06:37:23;11.30;99.90
11934;DHT22;6026;48.784;9.198;2023-05-17T06:39:50;11.40;99.90
11934;DHT22;6026;48.784;9.198;2023-05-17T06:42:16;11.60;99.90
11934;DHT22;6026;48.784;9.198;2023-05-17T06:44:42;11.80;99.90
11934;DHT22;6026;48.784;9.198;2023-05-17T06:47:07;12.00;99.90
11934;DHT22;6026;48.784;9.198;2023-05-17T06:49:33;12.40;99.90
11934;DHT22;6026;48.784;9.198;2023-05-17T06:51:59;12.50;99.90
11934;DHT22;6026;48.784;9.198;2023-05-17T06:54:28;12.70;99.90
11934;DHT22;6026;48.784;9.198;2023-05-17T06:56:58;12.60;99.90
11934;DHT22;6026;48.784;9.198;2023-05-17T06:59:23;12.90;99.90
11934;DHT22;6026;48.784;9.198;2023-05-17T07:01:49;12.70;99.90
11934;DHT22;6026;48.784;9.198;2023-05-17T07:04:15;12.70;99.90
11934;DHT22;6026;48.784;9.198;2023-05-17T07:06:40;13.00;99.90
11934;DHT22;6026;48.784;9.198;2023-05-17T07:09:06;13.00;99.90
11934;DHT22;6026;48.784;9.198;2023-05-17T07:11:32;13.40;99.90
11934;DHT22;6026;48.784;9.198;2023-05-17T07:13:58;13.60;99.90
11934;DHT22;6026;48.784;9.198;2023-05-17T07:16:23;13.50;99.90
11934;DHT22;6026;48.784;9.198;2023-05-17T07:18:49;13.70;99.90
11934;DHT22;6026;48.784;9.198;2023-05-17T07:21:14;13.30;99.90
11934;DHT22;6026;48.784;9.198;2023-05-17T07:23:40;13.50;99.90
11934;DHT22;6026;48.784;9.198;2023-05-17T07:26:06;13.80;99.90
11934;DHT22;6026;48.784;9.198;2023-05-17T07:28:31;14.10;99.90
11934;DHT22;6026;48.784;9.198;2023-05-17T07:30:57;13.90;99.90
11934;DHT22;6026;48.784;9.198;2023-05-17T07:33:22;13.80;99.90
11934;DHT22;6026;48.784;9.198;2023-05-17T07:35:48;13.90;99.90
11934;DHT22;6026;48.784;9.198;2023-05-17T07:38:13;14.10;99.90
11934;DHT22;6026;48.784;9.198;2023-05-17T07:40:39;14.30;99.90
11934;DHT22;6026;48.784;9.198;2023-05-17T07:43:05;14.40;99.90
11934;DHT22;6026;48.784;9.198;2023-05-17T07:45:30;14.40;99.90
11934;DHT22;6026;48.784;9.198;2023-05-17T07:47:56;14.50;99.90
11934;DHT22;6026;48.784;9.198;2023-05-17T07:50:21;14.40;99.90
11934;DHT22;6026;48.784;9.198;2023-05-17T07:52:47;14.50;99.90
11934;DHT22;6026;48.784;9.198;2023-05-17T07:55:13;14.70;99.90
11934;DHT22;6026;48.784;9.198;2023-05-17T07:57:38;14.70;99.90
11934;DHT22;6026;48.784;9.198;2023-05-17T08:00:04;14.50;99.90
11934;DHT22;6026;48.784;9.198;2023-05-17T08:02:30;14.80;99.90
11934;DHT22;6026;48.784;9.198;2023-05-17T08:04:56;14.90;99.90
11934;DHT22;6026;48.784;9.198;2023-05-17T08:07:21;15.10;99.90
11934;DHT22;6026;48.784;9.198;2023-05-17T08:09:47;15.30;99.90
11934;DHT22;6026;48.784;9.198;2023-05-17T08:12:12;15.30;99.90
11934;DHT22;6026;48.784;9.198;2023-05-17T08:14:39;15.50;99.90
11934;DHT22;6026;48.784;9.198;2023-05-17T08:17:04;15.70;99.90
11934;DHT22;6026;48.784;9.198;2023-05-17T08:19:30;15.80;99.90
11934;DHT22;6026;48.784;9.198;2023-05-17T08:21:56;15.70;99.90
11934;DHT22;6026;48.784;9.198;2023-05-17T08:24:21;16.10;99.90
11934;DHT22;6026;48.784;9.198;2023-05-17T08:26:47;16.30;99.90
11934;DHT22;6026;48.784;9.198;2023-05-17T08:29:12;16.60;99.90
11934;DHT22;6026;48.784;9.198;2023-05-17T08:31:38;16.60;99.90
11934;DHT22;6026;48.784;9.198;2023-05-17T08:34:03;16.30;99.90
11934;DHT22;6026;48.784;9.198;2023-05-17T08:36:29;16.40;99.90
11934;DHT22;6026;48.784;9.198;2023-05-17T08:38:55;16.60;99.90
11934;DHT22;6026;48.784;9.198;2023-05-17T08:41:20;16.40;99.90
11934;DHT22;6026;48.784;9.198;2023-05-17T08:43:47;16.60;99.90
11934;DHT22;6026;48.784;9.198;2023-05-17T08:46:13;16.70;99.90
11934;DHT22;6026;48.784;9.198;2023-05-17T08:48:41;16.70;99.90
11934;DHT22;6026;48.784;9.198;2023-05-17T08:51:07;16.60;99.90
11934;DHT22;6026;48.784;9.198;2023-05-17T08:53:36;16.70;99.90
11934;DHT22;6026;48.784;9.198;2023-05-17T08:56:03;16.90;99.90
11934;DHT22;6026;48.784;9.198;2023-05-17T08:58:34;17.00;99.90
11934;DHT22;6026;48.784;9.198;2023-05-17T09:01:02;17.20;99.90
11934;DHT22;6026;48.784;9.198;2023-05-17T09:03:28;17.00;99.90
11934;DHT22;6026;48.784;9.198;2023-05-17T09:05:54;16.80;99.90
11934;DHT22;6026;48.784;9.198;2023-05-17T09:08:21;16.50;99.90
11934;DHT22;6026;48.784;9.198;2023-05-17T09:10:47;16.40;99.90
11934;DHT22;6026;48.784;9.198;2023-05-17T09:13:13;16.50;99.90
11934;DHT22;6026;48.784;9.198;2023-05-17T09:15:42;16.60;99.90
11934;DHT22;6026;48.784;9.198;2023-05-17T09:18:10;16.50;99.90
11934;DHT22;6026;48.784;9.198;2023-05-17T09:20:36;16.40;99.90
11934;DHT22;6026;48.784;9.198;2023-05-17T09:23:05;16.80;99.90
11934;DHT22;6026;48.784;9.198;2023-05-17T09:25:31;17.30;99.90
11934;DHT22;6026;48.784;9.198;2023-05-17T09:28:04;17.30;99.90
11934;DHT22;6026;48.784;9.198;2023-05-17T09:30:33;17.10;99.90
11934;DHT22;6026;48.784;9.198;2023-05-17T09:33:09;17.10;99.90
11934;DHT22;6026;48.784;9.198;2023-05-17T09:35:36;17.10;99.90
11934;DHT22;6026;48.784;9.198;2023-05-17T09:40:32;17.50;99.90
11934;DHT22;6026;48.784;9.198;2023-05-17T09:42:58;17.60;99.90
11934;DHT22;6026;48.784;9.198;2023-05-17T09:45:24;17.30;99.90
11934;DHT22;6026;48.784;9.198;2023-05-17T09:47:50;17.30;99.90
11934;DHT22;6026;48.784;9.198;2023-05-17T09:50:20;17.20;99.90
11934;DHT22;6026;48.784;9.198;2023-05-17T09:52:46;17.20;99.90
11934;DHT22;6026;48.784;9.198;2023-05-17T09:55:12;17.10;99.90
11934;DHT22;6026;48.784;9.198;2023-05-17T09:57:39;17.10;99.90
11934;DHT22;6026;48.784;9.198;2023-05-17T10:00:05;17.00;99.90
11934;DHT22;6026;48.784;9.198;2023-05-17T10:02:37;16.80;99.90
11934;DHT22;6026;48.784;9.198;2023-05-17T10:05:08;16.80;99.90
11934;DHT22;6026;48.784;9.198;2023-05-17T10:07:36;16.90;99.90
11934;DHT22;6026;48.784;9.198;2023-05-17T10:10:02;16.90;99.90
11934;DHT22;6026;48.784;9.198;2023-05-17T10:12:28;17.00;99.90
11934;DHT22;6026;48.784;9.198;2023-05-17T10:14:55;17.00;99.90
11934;DHT22;6026;48.784;9.198;2023-05-17T10:17:21;17.00;99.90
11934;DHT22;6026;48.784;9.198;2023-05-17T10:19:48;16.90;99.90
11934;DHT22;6026;48.784;9.198;2023-05-17T10:22:14;16.60;99.90
11934;DHT22;6026;48.784;9.198;2023-05-17T10:24:42;16.40;99.90
11934;DHT22;6026;48.784;9.198;2023-05-17T10:27:08;16.30;99.90
11934;DHT22;6026;48.784;9.198;2023-05-17T10:29:35;16.10;99.90
11934;DHT22;6026;48.784;9.198;2023-05-17T10:32:03;16.00;99.90
11934;DHT22;6026;48.784;9.198;2023-05-17T10:34:34;15.90;99.90
11934;DHT22;6026;48.784;9.198;2023-05-17T10:37:00;16.10;99.90
11934;DHT22;6026;48.784;9.198;2023-05-17T10:39:26;16.10;99.90
11934;DHT22;6026;48.784;9.198;2023-05-17T10:41:53;16.10;99.90
11934;DHT22;6026;48.784;9.198;2023-05-17T10:44:20;16.40;99.90
11934;DHT22;6026;48.784;9.198;2023-05-17T10:46:53;16.80;99.90
11934;DHT22;6026;48.784;9.198;2023-05-17T10:49:23;17.00;99.90
11934;DHT22;6026;48.784;9.198;2023-05-17T10:51:50;17.20;99.90
11934;DHT22;6026;48.784;9.198;2023-05-17T10:54:16;17.10;99.90
11934;DHT22;6026;48.784;9.198;2023-05-17T10:59:25;17.30;99.90
11934;DHT22;6026;48.784;9.198;2023-05-17T11:02:07;17.10;99.90
11934;DHT22;6026;48.784;9.198;2023-05-17T11:04:37;17.00;99.90
11934;DHT22;6026;48.784;9.198;2023-05-17T11:09:42;16.70;99.90
11934;DHT22;6026;48.784;9.198;2023-05-17T11:12:09;16.50;99.90
11934;DHT22;6026;48.784;9.198;2023-05-17T11:15:11;16.50;99.90
11934;DHT22;6026;48.784;9.198;2023-05-17T11:20:29;16.30;99.90
11934;DHT22;6026;48.784;9.198;2023-05-17T11:23:05;16.00;99.90
11934;DHT22;6026;48.784;9.198;2023-05-17T11:25:41;16.00;99.90
11934;DHT22;6026;48.784;9.198;2023-05-17T11:28:16;15.50;99.90
11934;DHT22;6026;48.784;9.198;2023-05-17T11:30:42;15.50;99.90
11934;DHT22;6026;48.784;9.198;2023-05-17T11:33:12;15.60;99.90
11934;DHT22;6026;48.784;9.198;2023-05-17T11:35:38;15.50;99.90
11934;DHT22;6026;48.784;9.198;2023-05-17T11:38:20;15.40;99.90
11934;DHT22;6026;48.784;9.198;2023-05-17T11:40:54;15.30;99.90
11934;DHT22;6026;48.784;9.198;2023-05-17T11:43:21;15.10;99.90
11934;DHT22;6026;48.784;9.198;2023-05-17T11:45:55;15.00;99.90
11934;DHT22;6026;48.784;9.198;2023-05-17T11:48:24;14.90;99.90
11934;DHT22;6026;48.784;9.198;2023-05-17T11:50:55;14.70;99.90
11934;DHT22;6026;48.784;9.198;2023-05-17T11:53:21;14.50;99.90
11934;DHT22;6026;48.784;9.198;2023-05-17T11:55:49;14.40;99.90
11934;DHT22;6026;48.784;9.198;2023-05-17T11:58:18;14.50;99.90
11934;DHT22;6026;48.784;9.198;2023-05-17T12:00:44;14.50;99.90
11934;DHT22;6026;48.784;9.198;2023-05-17T12:03:16;14.50;99.90
11934;DHT22;6026;48.784;9.198;2023-05-17T12:05:46;14.50;99.90
11934;DHT22;6026;48.784;9.198;2023-05-17T12:08:15;14.30;99.90
11934;DHT22;6026;48.784;9.198;2023-05-17T12:10:49;14.40;99.90
11934;DHT22;6026;48.784;9.198;2023-05-17T12:13:15;14.50;99.90
11934;DHT22;6026;48.784;9.198;2023-05-17T12:15:44;14.70;99.90
11934;DHT22;6026;48.784;9.198;2023-05-17T12:18:10;14.80;99.90
11934;DHT22;6026;48.784;9.198;2023-05-17T12:20:36;14.90;99.90
11934;DHT22;6026;48.784;9.198;2023-05-17T12:23:03;14.90;99.90
11934;DHT22;6026;48.784;9.198;2023-05-17T12:25:29;15.00;99.90
11934;DHT22;6026;48.784;9.198;2023-05-17T12:30:39;15.30;99.90
11934;DHT22;6026;48.784;9.198;2023-05-17T12:33:05;15.40;99.90
11934;DHT22;6026;48.784;9.198;2023-05-17T12:35:31;15.60;99.90
11934;DHT22;6026;48.784;9.198;2023-05-17T12:37:57;15.80;99.90
11934;DHT22;6026;48.784;9.198;2023-05-17T12:40:23;16.00;99.90
11934;DHT22;6026;48.784;9.198;2023-05-17T12:42:49;16.10;99.90
11934;DHT22;6026;48.784;9.198;2023-05-17T12:45:14;16.10;99.90
11934;DHT22;6026;48.784;9.198;2023-05-17T12:47:40;16.30;99.90
11934;DHT22;6026;48.784;9.198;2023-05-17T12:50:07;16.30;99.90
11934;DHT22;6026;48.784;9.198;2023-05-17T12:52:33;16.30;99.90
11934;DHT22;6026;48.784;9.198;2023-05-17T12:55:02;16.30;99.90
11934;DHT22;6026;48.784;9.198;2023-05-17T12:57:28;16.20;99.90
11934;DHT22;6026;48.784;9.198;2023-05-17T12:59:54;15.90;99.90
11934;DHT22;6026;48.784;9.198;2023-05-17T13:02:20;15.70;99.90
11934;DHT22;6026;48.784;9.198;2023-05-17T13:04:45;15.70;99.90
11934;DHT22;6026;48.784;9.198;2023-05-17T13:07:19;15.60;99.90
11934;DHT22;6026;48.784;9.198;2023-05-17T13:09:46;15.60;99.90
11934;DHT22;6026;48.784;9.198;2023-05-17T13:12:18;15.50;99.90
11934;DHT22;6026;48.784;9.198;2023-05-17T13:14:45;15.40;99.90
11934;DHT22;6026;48.784;9.198;2023-05-17T13:17:21;15.50;99.90
11934;DHT22;6026;48.784;9.198;2023-05-17T13:19:48;15.40;99.90
11934;DHT22;6026;48.784;9.198;2023-05-17T13:22:14;15.40;99.90
11934;DHT22;6026;48.784;9.198;2023-05-17T13:24:41;15.50;99.90
11934;DHT22;6026;48.784;9.198;2023-05-17T13:27:07;15.60;99.90
11934;DHT22;6026;48.784;9.198;2023-05-17T13:29:35;15.70;99.90
11934;DHT22;6026;48.784;9.198;2023-05-17T13:32:01;15.70;99.90
11934;DHT22;6026;48.784;9.198;2023-05-17T13:34:27;15.90;99.90
11934;DHT22;6026;48.784;9.198;2023-05-17T13:36:52;15.80;99.90
11934;DHT22;6026;48.784;9.198;2023-05-17T13:39:18;15.90;99.90
11934;DHT22;6026;48.784;9.198;2023-05-17T13:41:45;15.80;99.90
11934;DHT22;6026;48.784;9.198;2023-05-17T13:44:10;15.90;99.90
11934;DHT22;6026;48.784;9.198;2023-05-17T13:46:36;16.00;99.90
11934;DHT22;6026;48.784;9.198;2023-05-17T13:49:02;16.00;99.90
11934;DHT22;6026;48.784;9.198;2023-05-17T13:51:29;16.10;99.90
11934;DHT22;6026;48.784;9.198;2023-05-17T13:53:55;16.20;99.90
11934;DHT22;6026;48.784;9.198;2023-05-17T13:56:20;16.20;99.90
11934;DHT22;6026;48.784;9.198;2023-05-17T13:58:46;16.10;99.90
11934;DHT22;6026;48.784;9.198;2023-05-17T14:01:12;15.90;99.90
11934;DHT22;6026;48.784;9.198;2023-05-17T14:03:38;16.10;99.90
11934;DHT22;6026;48.784;9.198;2023-05-17T14:06:03;16.30;99.90
11934;DHT22;6026;48.784;9.198;2023-05-17T14:08:29;16.30;99.90
11934;DHT22;6026;48.784;9.198;2023-05-17T14:10:55;16.40;99.90
11934;DHT22;6026;48.784;9.198;2023-05-17T14:13:21;16.30;99.90
11934;DHT22;6026;48.784;9.198;2023-05-17T14:15:46;16.40;99.90
11934;DHT22;6026;48.784;9.198;2023-05-17T14:18:12;16.60;99.90
11934;DHT22;6026;48.784;9.198;2023-05-17T14:20:37;16.80;99.90
11934;DHT22;6026;48.784;9.198;2023-05-17T14:23:03;16.90;99.90
11934;DHT22;6026;48.784;9.198;2023-05-17T14:25:29;16.80;99.90
11934;DHT22;6026;48.784;9.198;2023-05-17T14:27:54;16.70;99.90
11934;DHT22;6026;48.784;9.198;2023-05-17T14:30:20;16.60;99.90
11934;DHT22;6026;48.784;9.198;2023-05-17T14:32:46;16.60;99.90
11934;DHT22;6026;48.784;9.198;2023-05-17T14:35:14;16.60;99.90
11934;DHT22;6026;48.784;9.198;2023-05-17T14:37:41;16.50;99.90
11934;DHT22;6026;48.784;9.198;2023-05-17T14:40:07;16.50;99.90
11934;DHT22;6026;48.784;9.198;2023-05-17T14:42:32;16.40;99.90
11934;DHT22;6026;48.784;9.198;2023-05-17T14:44:58;16.50;99.90
11934;DHT22;6026;48.784;9.198;2023-05-17T14:47:23;16.40;99.90
11934;DHT22;6026;48.784;9.198;2023-05-17T14:49:49;16.20;99.90
11934;DHT22;6026;48.784;9.198;2023-05-17T14:52:15;16.20;99.90
11934;DHT22;6026;48.784;9.198;2023-05-17T14:54:40;15.90;99.90
11934;DHT22;6026;48.784;9.198;2023-05-17T14:57:06;15.90;99.90
11934;DHT22;6026;48.784;9.198;2023-05-17T14:59:36;15.80;99.90
11934;DHT22;6026;48.784;9.198;2023-05-17T15:02:05;15.70;99.90
11934;DHT22;6026;48.784;9.198;2023-05-17T15:04:31;15.30;99.90
11934;DHT22;6026;48.784;9.198;2023-05-17T15:06:57;15.30;99.90
11934;DHT22;6026;48.784;9.198;2023-05-17T15:09:23;15.20;99.90
11934;DHT22;6026;48.784;9.198;2023-05-17T15:11:49;15.10;99.90
11934;DHT22;6026;48.784;9.198;2023-05-17T15:14:17;15.00;99.90
11934;DHT22;6026;48.784;9.198;2023-05-17T15:16:47;14.90;99.90
11934;DHT22;6026;48.784;9.198;2023-05-17T15:19:13;14.70;99.90
11934;DHT22;6026;48.784;9.198;2023-05-17T15:21:38;14.50;99.90
11934;DHT22;6026;48.784;9.198;2023-05-17T15:24:04;14.50;99.90
11934;DHT22;6026;48.784;9.198;2023-05-17T15:26:30;14.30;99.90
11934;DHT22;6026;48.784;9.198;2023-05-17T15:28:56;14.20;99.90
11934;DHT22;6026;48.784;9.198;2023-05-17T15:31:21;14.20;99.90
11934;DHT22;6026;48.784;9.198;2023-05-17T15:33:48;14.10;99.90
11934;DHT22;6026;48.784;9.198;2023-05-17T15:36:14;14.10;99.90
11934;DHT22;6026;48.784;9.198;2023-05-17T15:38:41;14.00;99.90
11934;DHT22;6026;48.784;9.198;2023-05-17T15:41:12;14.10;99.90
11934;DHT22;6026;48.784;9.198;2023-05-17T15:43:38;14.10;99.90
11934;DHT22;6026;48.784;9.198;2023-05-17T15:46:04;14.20;99.90
11934;DHT22;6026;48.784;9.198;2023-05-17T15:48:30;14.10;99.90
11934;DHT22;6026;48.784;9.198;2023-05-17T15:50:56;14.00;99.90
11934;DHT22;6026;48.784;9.198;2023-05-17T15:53:25;14.10;99.90
11934;DHT22;6026;48.784;9.198;2023-05-17T15:55:51;14.20;99.90
11934;DHT22;6026;48.784;9.198;2023-05-17T15:58:18;14.30;99.90
11934;DHT22;6026;48.784;9.198;2023-05-17T16:00:44;14.40;99.90
11934;DHT22;6026;48.784;9.198;2023-05-17T16:03:11;14.40;99.90
11934;DHT22;6026;48.784;9.198;2023-05-17T16:05:37;14.40;99.90
11934;DHT22;6026;48.784;9.198;2023-05-17T16:08:03;14.40;99.90